createdAt,value
2019-03-30T00:01:02.957Z,72.87
2019-03-30T00:03:33.318Z,73.14
2019-03-30T00:06:03.612Z,73.21
2019-03-30T00:08:34.032Z,73.00
2019-03-30T00:11:04.343Z,73.17
2019-03-30T00:13:34.673Z,73.06
2019-03-30T00:16:04.977Z,72.58
2019-03-30T00:18:35.307Z,72.50
2019-03-30T00:21:05.589Z,72.40
2019-03-30T00:23:35.955Z,72.31
2019-03-30T00:26:06.245Z,72.16
2019-03-30T00:28:36.578Z,71.91
2019-03-30T00:31:06.854Z,71.95
2019-03-30T00:33:37.171Z,71.56
2019-03-30T00:36:07.491Z,71.60
2019-03-30T00:38:37.781Z,71.52
2019-03-30T00:41:08.043Z,71.60
2019-03-30T00:43:38.340Z,71.69
2019-03-30T00:46:08.631Z,71.55
2019-03-30T00:48:41.511Z,71.47
2019-03-30T00:51:11.799Z,71.44
2019-03-30T00:53:42.159Z,71.36
2019-03-30T00:56:12.493Z,71.17
2019-03-30T00:58:42.851Z,70.78
2019-03-30T01:01:13.175Z,70.94
2019-03-30T01:03:43.467Z,70.72
2019-03-30T01:06:13.846Z,71.05
2019-03-30T01:08:44.155Z,70.75
2019-03-30T01:11:14.435Z,70.86
2019-03-30T01:13:44.814Z,71.00
2019-03-30T01:16:15.108Z,70.84
2019-03-30T01:18:45.432Z,71.02
2019-03-30T01:21:15.786Z,71.28
2019-03-30T01:23:46.088Z,71.25
2019-03-30T01:26:16.387Z,71.21
2019-03-30T01:28:46.710Z,71.21
2019-03-30T01:31:17.030Z,71.14
2019-03-30T01:33:47.379Z,71.51
2019-03-30T01:36:17.704Z,71.90
2019-03-30T01:38:48.056Z,71.80
2019-03-30T01:41:18.326Z,72.31
2019-03-30T01:43:48.676Z,72.62
2019-03-30T01:46:18.954Z,72.82
2019-03-30T01:48:49.362Z,73.21
2019-03-30T01:51:19.776Z,72.79
2019-03-30T01:53:50.096Z,73.08
2019-03-30T01:56:20.384Z,73.36
2019-03-30T01:58:50.704Z,73.49
2019-03-30T02:01:21.026Z,73.72
2019-03-30T02:03:51.410Z,73.72
2019-03-30T02:06:21.672Z,73.79
2019-03-30T02:08:51.981Z,73.60
2019-03-30T02:11:22.296Z,73.93
2019-03-30T02:13:52.613Z,73.78
2019-03-30T02:16:22.910Z,73.79
2019-03-30T02:18:53.256Z,73.76
2019-03-30T02:21:23.578Z,73.82
2019-03-30T02:23:53.856Z,74.01
2019-03-30T02:26:24.168Z,73.83
2019-03-30T02:28:54.574Z,73.73
2019-03-30T02:31:24.881Z,74.08
2019-03-30T02:33:55.183Z,73.83
2019-03-30T02:36:25.460Z,73.87
2019-03-30T02:38:55.773Z,73.80
2019-03-30T02:41:26.058Z,73.89
2019-03-30T02:43:56.387Z,74.10
2019-03-30T02:46:26.646Z,74.07
2019-03-30T02:48:56.985Z,74.37
2019-03-30T02:51:27.241Z,74.47
2019-03-30T02:53:57.599Z,73.91
2019-03-30T02:56:27.871Z,73.91
2019-03-30T02:58:58.197Z,74.23
2019-03-30T03:01:28.541Z,74.20
2019-03-30T03:03:58.819Z,74.43
2019-03-30T03:06:29.103Z,74.56
2019-03-30T03:08:59.410Z,74.02
2019-03-30T03:11:30.061Z,73.93
2019-03-30T03:14:00.370Z,74.44
2019-03-30T03:16:30.659Z,74.16
2019-03-30T03:19:00.955Z,74.18
2019-03-30T03:21:31.259Z,74.36
2019-03-30T03:24:01.560Z,74.53
2019-03-30T03:26:31.840Z,74.66
2019-03-30T03:29:02.171Z,74.66
2019-03-30T03:31:32.581Z,74.67
2019-03-30T03:34:02.887Z,74.72
2019-03-30T03:36:33.335Z,74.62
2019-03-30T03:39:04.453Z,74.52
2019-03-30T03:41:34.764Z,74.55
2019-03-30T03:44:05.177Z,74.85
2019-03-30T03:46:35.455Z,74.67
2019-03-30T03:49:05.757Z,75.03
2019-03-30T03:51:36.052Z,75.25
2019-03-30T03:54:06.705Z,75.25
2019-03-30T03:56:36.985Z,75.45
2019-03-30T03:59:07.630Z,75.45
2019-03-30T04:01:37.950Z,75.71
2019-03-30T04:04:08.612Z,75.76
2019-03-30T04:06:39.397Z,76.14
2019-03-30T04:09:09.674Z,76.14
2019-03-30T04:11:39.958Z,76.01
2019-03-30T04:14:10.572Z,76.29
2019-03-30T04:16:40.855Z,76.23
2019-03-30T04:19:11.235Z,76.28
2019-03-30T04:21:44.550Z,76.28
2019-03-30T04:24:11.872Z,76.54
2019-03-30T04:26:42.224Z,76.49
2019-03-30T04:29:12.491Z,76.59
2019-03-30T04:31:42.848Z,76.19
2019-03-30T04:34:13.090Z,76.19
2019-03-30T04:36:43.468Z,76.88
2019-03-30T04:39:13.794Z,76.76
2019-03-30T04:41:44.151Z,76.76
2019-03-30T04:44:14.442Z,76.73
2019-03-30T04:46:44.715Z,76.90
2019-03-30T04:49:15.095Z,77.19
2019-03-30T04:51:56.828Z,77.47
2019-03-30T04:54:15.742Z,77.19
2019-03-30T04:56:46.104Z,77.41
2019-03-30T04:59:16.376Z,77.41
2019-03-30T05:01:46.692Z,77.33
2019-03-30T05:04:17.114Z,77.27
2019-03-30T05:06:47.846Z,77.37
2019-03-30T05:09:18.154Z,77.32
2019-03-30T05:11:48.512Z,77.19
2019-03-30T05:14:18.872Z,76.98
2019-03-30T05:16:49.206Z,76.92
2019-03-30T05:19:19.506Z,77.09
2019-03-30T05:21:49.875Z,76.90
2019-03-30T05:24:20.166Z,76.93
2019-03-30T05:26:50.516Z,76.52
2019-03-30T05:29:20.809Z,76.58
2019-03-30T05:31:51.151Z,76.54
2019-03-30T05:34:21.460Z,76.40
2019-03-30T05:36:51.778Z,76.30
2019-03-30T05:39:22.128Z,76.41
2019-03-30T05:41:52.416Z,76.29
2019-03-30T05:44:22.680Z,76.16
2019-03-30T05:46:52.970Z,78.57
2019-03-30T05:49:23.299Z,77.58
2019-03-30T05:51:53.596Z,76.91
2019-03-30T05:54:23.952Z,76.52
2019-03-30T05:56:54.304Z,74.97
2019-03-30T05:59:24.603Z,73.25
2019-03-30T06:01:54.930Z,73.25
2019-03-30T06:04:25.224Z,74.20
2019-03-30T06:06:55.602Z,74.20
2019-03-30T06:09:26.060Z,71.99
2019-03-30T06:11:56.350Z,72.67
2019-03-30T06:14:26.654Z,73.00
2019-03-30T06:16:57.005Z,72.43
2019-03-30T06:19:27.282Z,72.54
2019-03-30T06:21:57.566Z,72.78
2019-03-30T06:24:27.954Z,72.46
2019-03-30T06:26:58.288Z,72.46
2019-03-30T06:29:28.536Z,72.25
2019-03-30T06:31:58.847Z,72.57
2019-03-30T06:34:29.132Z,72.35
2019-03-30T06:36:59.498Z,72.00
2019-03-30T06:39:29.852Z,72.06
2019-03-30T06:42:00.151Z,71.54
2019-03-30T06:44:30.417Z,70.74
2019-03-30T06:47:00.697Z,70.34
2019-03-30T06:49:30.995Z,70.55
2019-03-30T06:52:01.431Z,70.63
2019-03-30T06:54:31.763Z,70.70
2019-03-30T06:57:02.235Z,70.08
2019-03-30T06:59:32.514Z,70.03
2019-03-30T07:02:02.865Z,69.92
2019-03-30T07:04:33.276Z,69.98
2019-03-30T07:07:03.577Z,69.37
2019-03-30T07:09:33.904Z,68.93
2019-03-30T07:12:04.230Z,68.90
2019-03-30T07:14:34.526Z,68.17
2019-03-30T07:17:05.147Z,67.54
2019-03-30T07:19:35.722Z,67.04
2019-03-30T07:22:06.008Z,66.33
2019-03-30T07:24:36.381Z,66.66
2019-03-30T07:27:06.728Z,66.45
2019-03-30T07:29:37.020Z,65.70
2019-03-30T07:32:07.306Z,65.08
2019-03-30T07:34:37.690Z,64.53
2019-03-30T07:37:08.029Z,64.00
2019-03-30T07:39:38.436Z,63.64
2019-03-30T07:42:08.910Z,62.54
2019-03-30T07:44:39.288Z,61.98
2019-03-30T07:47:09.598Z,61.46
2019-03-30T07:49:39.868Z,61.52
2019-03-30T07:52:10.144Z,60.75
2019-03-30T07:54:40.432Z,59.79
2019-03-30T07:57:16.864Z,59.67
2019-03-30T07:59:41.099Z,58.59
2019-03-30T08:02:11.427Z,58.52
2019-03-30T08:04:41.671Z,57.19
2019-03-30T08:07:11.972Z,56.64
2019-03-30T08:09:42.331Z,56.12
2019-03-30T08:12:12.672Z,55.83
2019-03-30T08:14:45.107Z,55.64
2019-03-30T08:17:13.325Z,56.46
2019-03-30T08:19:43.628Z,56.28
2019-03-30T08:22:13.920Z,55.61
2019-03-30T08:24:44.282Z,55.11
2019-03-30T08:27:14.614Z,54.99
2019-03-30T08:29:44.897Z,55.02
2019-03-30T08:32:15.272Z,53.75
2019-03-30T08:34:45.693Z,53.47
2019-03-30T08:37:16.021Z,52.77
2019-03-30T08:39:46.344Z,51.91
2019-03-30T08:42:16.666Z,51.59
2019-03-30T08:44:47.002Z,49.91
2019-03-30T08:47:17.283Z,49.61
2019-03-30T08:49:47.628Z,49.25
2019-03-30T08:52:17.976Z,49.65
2019-03-30T08:54:48.282Z,49.25
2019-03-30T08:57:18.604Z,49.22
2019-03-30T08:59:48.952Z,48.66
2019-03-30T09:02:19.257Z,48.70
2019-03-30T09:04:49.564Z,48.24
2019-03-30T09:07:19.904Z,47.49
2019-03-30T09:09:50.202Z,46.75
2019-03-30T09:12:20.464Z,47.21
2019-03-30T09:14:50.774Z,47.07
2019-03-30T09:17:21.088Z,46.67
2019-03-30T09:19:51.401Z,46.80
2019-03-30T09:22:21.662Z,47.38
2019-03-30T09:24:51.978Z,47.00
2019-03-30T09:27:22.243Z,46.07
2019-03-30T09:29:52.556Z,43.29
2019-03-30T09:32:22.840Z,43.82
2019-03-30T09:34:53.182Z,44.24
2019-03-30T09:37:23.459Z,45.39
2019-03-30T09:39:53.754Z,45.79
2019-03-30T09:42:24.038Z,44.46
2019-03-30T09:44:54.319Z,43.35
2019-03-30T09:47:24.616Z,42.87
2019-03-30T09:49:54.926Z,42.15
2019-03-30T09:52:25.196Z,41.61
2019-03-30T09:54:55.591Z,40.99
2019-03-30T09:57:25.901Z,39.74
2019-03-30T09:59:56.205Z,39.57
2019-03-30T10:02:26.468Z,39.84
2019-03-30T10:04:56.785Z,39.23
2019-03-30T10:07:27.154Z,38.44
2019-03-30T10:09:57.469Z,38.56
2019-03-30T10:12:27.838Z,37.15
2019-03-30T10:14:58.170Z,37.22
2019-03-30T10:17:28.489Z,35.67
2019-03-30T10:20:04.722Z,35.92
2019-03-30T10:22:29.057Z,37.35
2019-03-30T10:24:59.497Z,38.82
2019-03-30T10:27:29.905Z,39.44
2019-03-30T10:30:00.484Z,38.51
2019-03-30T10:32:30.548Z,37.59
2019-03-30T10:35:00.871Z,37.31
2019-03-30T10:37:31.154Z,34.73
2019-03-30T10:40:01.476Z,35.35
2019-03-30T10:42:31.857Z,36.97
2019-03-30T10:45:02.177Z,37.39
2019-03-30T10:47:32.504Z,35.23
2019-03-30T10:50:02.818Z,35.05
2019-03-30T10:52:33.104Z,35.20
2019-03-30T10:55:03.397Z,34.21
2019-03-30T10:57:33.690Z,34.09
2019-03-30T11:00:04.144Z,33.75
2019-03-30T11:02:34.474Z,32.22
2019-03-30T11:05:04.846Z,32.52
2019-03-30T11:07:35.204Z,31.98
2019-03-30T11:10:06.158Z,31.09
2019-03-30T11:12:36.566Z,31.74
2019-03-30T11:15:07.079Z,31.85
2019-03-30T11:17:37.406Z,30.90
2019-03-30T11:20:07.761Z,31.19
2019-03-30T11:22:38.089Z,31.47
2019-03-30T11:25:09.200Z,31.00
2019-03-30T11:27:38.923Z,29.75
2019-03-30T11:30:09.251Z,30.90
2019-03-30T11:32:39.706Z,31.23
2019-03-30T11:35:10.126Z,32.77
2019-03-30T11:37:40.433Z,32.25
2019-03-30T11:40:10.744Z,31.16
2019-03-30T11:42:41.073Z,30.43
2019-03-30T11:45:11.484Z,29.16
2019-03-30T11:47:43.424Z,29.15
2019-03-30T11:50:13.849Z,29.79
2019-03-30T11:52:44.242Z,30.76
2019-03-30T11:55:21.785Z,30.51
2019-03-30T11:57:45.009Z,31.74
2019-03-30T12:00:15.340Z,29.84
2019-03-30T12:02:45.760Z,29.19
2019-03-30T12:05:16.073Z,29.36
2019-03-30T12:07:46.390Z,29.69
2019-03-30T12:10:16.791Z,28.11
2019-03-30T12:12:47.127Z,27.99
2019-03-30T12:15:17.473Z,28.27
2019-03-30T12:17:47.859Z,26.17
2019-03-30T12:20:18.170Z,26.37
2019-03-30T12:22:48.562Z,27.99
2019-03-30T12:25:18.871Z,27.90
2019-03-30T12:27:49.317Z,28.67
2019-03-30T12:30:19.619Z,29.63
2019-03-30T12:32:49.943Z,29.72
2019-03-30T12:35:20.281Z,29.86
2019-03-30T12:37:50.596Z,30.09
2019-03-30T12:40:20.871Z,29.26
2019-03-30T12:42:51.190Z,30.39
2019-03-30T12:45:21.525Z,29.63
2019-03-30T12:47:51.838Z,29.02
2019-03-30T12:50:22.169Z,27.52
2019-03-30T12:52:52.510Z,27.23
2019-03-30T12:55:22.867Z,27.17
2019-03-30T12:57:53.164Z,29.50
2019-03-30T13:00:23.436Z,30.55
2019-03-30T13:02:53.757Z,31.29
2019-03-30T13:05:24.175Z,30.95
2019-03-30T13:07:54.544Z,31.51
2019-03-30T13:10:25.019Z,29.84
2019-03-30T13:12:55.360Z,29.14
2019-03-30T13:15:25.721Z,28.35
2019-03-30T13:17:56.116Z,28.29
2019-03-30T13:20:26.500Z,29.57
2019-03-30T13:22:56.954Z,29.43
2019-03-30T13:25:27.383Z,30.48
2019-03-30T13:27:58.022Z,31.28
2019-03-30T13:30:28.356Z,32.00
2019-03-30T13:32:58.676Z,32.73
2019-03-30T13:35:28.990Z,33.34
2019-03-30T13:37:59.328Z,34.12
2019-03-30T13:40:29.689Z,34.04
2019-03-30T13:42:59.984Z,32.00
2019-03-30T13:45:30.269Z,31.52
2019-03-30T13:48:00.631Z,30.18
2019-03-30T13:50:31.229Z,29.96
2019-03-30T13:53:01.236Z,29.79
2019-03-30T13:55:31.579Z,29.09
2019-03-30T13:58:01.886Z,28.86
2019-03-30T14:00:32.207Z,29.50
2019-03-30T14:03:02.554Z,30.28
2019-03-30T14:05:32.837Z,30.81
2019-03-30T14:08:03.254Z,31.19
2019-03-30T14:10:33.548Z,31.28
2019-03-30T14:13:03.878Z,31.90
2019-03-30T14:15:34.269Z,32.37
2019-03-30T14:18:04.692Z,32.28
2019-03-30T14:20:35.044Z,32.13
2019-03-30T14:23:05.380Z,32.47
2019-03-30T14:25:35.678Z,31.64
2019-03-30T14:28:06.039Z,32.15
2019-03-30T14:30:36.349Z,32.82
2019-03-30T14:33:06.670Z,31.41
2019-03-30T14:35:37.025Z,31.81
2019-03-30T14:38:07.326Z,31.25
2019-03-30T14:40:37.616Z,31.46
2019-03-30T14:43:07.920Z,31.53
2019-03-30T14:45:38.403Z,31.68
2019-03-30T14:48:08.686Z,30.80
2019-03-30T14:50:39.152Z,31.05
2019-03-30T14:53:09.571Z,31.06
2019-03-30T14:55:39.901Z,31.83
2019-03-30T14:58:10.189Z,31.33
2019-03-30T15:00:40.689Z,31.86
2019-03-30T15:03:10.837Z,32.03
2019-03-30T15:05:41.212Z,32.62
2019-03-30T15:08:11.560Z,32.96
2019-03-30T15:10:41.870Z,33.60
2019-03-30T15:13:12.138Z,33.18
2019-03-30T15:15:42.512Z,33.66
2019-03-30T15:18:12.934Z,33.96
2019-03-30T15:20:43.366Z,33.81
2019-03-30T15:23:13.653Z,34.61
2019-03-30T15:25:44.032Z,34.94
2019-03-30T15:28:14.304Z,35.71
2019-03-30T15:30:44.775Z,35.51
2019-03-30T15:33:15.063Z,34.79
2019-03-30T15:35:45.428Z,34.73
2019-03-30T15:38:15.760Z,34.59
2019-03-30T15:40:46.114Z,34.58
2019-03-30T15:43:16.434Z,34.88
2019-03-30T15:45:46.716Z,35.65
2019-03-30T15:48:17.101Z,35.61
2019-03-30T15:50:47.338Z,35.72
2019-03-30T15:53:17.686Z,35.08
2019-03-30T15:55:48.014Z,33.54
2019-03-30T15:58:18.310Z,32.78
2019-03-30T16:00:48.700Z,32.30
2019-03-30T16:03:19.010Z,32.48
2019-03-30T16:05:49.425Z,32.90
2019-03-30T16:08:19.832Z,33.75
2019-03-30T16:10:52.276Z,33.52
2019-03-30T16:13:20.484Z,34.15
2019-03-30T16:15:50.839Z,35.01
2019-03-30T16:18:21.142Z,35.51
2019-03-30T16:20:51.586Z,35.67
2019-03-30T16:23:21.892Z,35.72
2019-03-30T16:25:52.232Z,36.26
2019-03-30T16:28:22.641Z,37.06
2019-03-30T16:30:53.020Z,36.60
2019-03-30T16:33:23.386Z,37.26
2019-03-30T16:35:53.731Z,37.62
2019-03-30T16:38:24.138Z,38.34
2019-03-30T16:40:54.466Z,38.17
2019-03-30T16:43:24.829Z,38.35
2019-03-30T16:45:55.214Z,38.63
2019-03-30T16:48:26.048Z,38.14
2019-03-30T16:50:56.504Z,37.60
2019-03-30T16:53:26.936Z,37.40
2019-03-30T16:55:57.345Z,37.18
2019-03-30T16:58:27.658Z,36.85
2019-03-30T17:00:58.046Z,36.79
2019-03-30T17:03:28.414Z,36.78
2019-03-30T17:05:58.866Z,37.33
2019-03-30T17:08:29.277Z,37.03
2019-03-30T17:10:59.655Z,37.51
2019-03-30T17:13:29.971Z,37.61
2019-03-30T17:16:00.336Z,38.03
2019-03-30T17:18:30.656Z,38.79
2019-03-30T17:21:00.944Z,38.91
2019-03-30T17:23:31.351Z,39.26
2019-03-30T17:26:01.839Z,39.51
2019-03-30T17:28:32.332Z,39.82
2019-03-30T17:31:02.607Z,40.13
2019-03-30T17:33:32.968Z,40.18
2019-03-30T17:36:03.350Z,40.14
2019-03-30T17:38:34.384Z,40.31
2019-03-30T17:41:04.876Z,40.40
2019-03-30T17:43:35.187Z,40.40
2019-03-30T17:46:05.573Z,40.44
2019-03-30T17:48:36.018Z,40.57
2019-03-30T17:51:06.346Z,40.39
2019-03-30T17:53:39.466Z,40.69
2019-03-30T17:56:07.345Z,40.91
2019-03-30T17:58:37.961Z,40.99
2019-03-30T18:01:08.353Z,41.08
2019-03-30T18:03:38.920Z,41.44
2019-03-30T18:06:09.401Z,41.70
2019-03-30T18:08:53.520Z,41.75
2019-03-30T18:11:23.820Z,42.05
2019-03-30T18:13:54.148Z,42.44
2019-03-30T18:16:24.558Z,42.78
2019-03-30T18:18:54.868Z,43.05
2019-03-30T18:21:25.266Z,43.23
2019-03-30T18:23:55.752Z,43.29
2019-03-30T18:26:26.135Z,43.29
2019-03-30T18:28:56.445Z,43.45
2019-03-30T18:31:26.794Z,43.61
2019-03-30T18:33:57.247Z,43.71
2019-03-30T18:36:27.639Z,43.89
2019-03-30T18:39:09.350Z,44.06
2019-03-30T18:41:29.310Z,44.04
2019-03-30T18:44:02.142Z,44.14
2019-03-30T18:46:30.195Z,44.27
2019-03-30T18:49:00.564Z,44.47
2019-03-30T18:51:30.958Z,44.73
2019-03-30T18:54:01.325Z,44.89
2019-03-30T18:56:31.831Z,45.18
2019-03-30T18:59:02.148Z,45.39
2019-03-30T19:01:32.524Z,45.58
2019-03-30T19:04:02.879Z,45.77
2019-03-30T19:06:33.194Z,45.98
2019-03-30T19:09:04.712Z,46.25
2019-03-30T19:11:35.144Z,46.31
2019-03-30T19:14:05.498Z,46.23
2019-03-30T19:16:35.773Z,46.39
2019-03-30T19:19:06.054Z,46.54
2019-03-30T19:21:36.444Z,46.38
2019-03-30T19:24:06.980Z,46.26
2019-03-30T19:26:37.316Z,46.58
2019-03-30T19:29:07.765Z,46.80
2019-03-30T19:31:38.175Z,46.63
2019-03-30T19:34:08.500Z,46.68
2019-03-30T19:36:38.885Z,46.67
2019-03-30T19:39:09.799Z,46.47
2019-03-30T19:41:40.186Z,46.13
2019-03-30T19:44:11.680Z,46.30
2019-03-30T19:46:42.098Z,46.27
2019-03-30T19:49:12.457Z,46.32
2019-03-30T19:51:42.840Z,46.27
2019-03-30T19:54:13.176Z,46.20
2019-03-30T19:56:43.564Z,46.19
2019-03-30T19:59:14.148Z,45.94
2019-03-30T20:01:44.448Z,45.84
2019-03-30T20:04:14.783Z,45.94
2019-03-30T20:06:45.180Z,46.10
2019-03-30T20:09:15.527Z,45.90
2019-03-30T20:11:45.904Z,46.22
2019-03-30T20:14:16.242Z,46.21
2019-03-30T20:16:46.698Z,46.31
2019-03-30T20:19:17.020Z,46.46
2019-03-30T20:21:47.310Z,46.59
2019-03-30T20:24:17.615Z,46.60
2019-03-30T20:26:47.938Z,46.69
2019-03-30T20:29:25.215Z,46.89
2019-03-30T20:31:48.946Z,46.84
2019-03-30T20:34:19.558Z,47.03
2019-03-30T20:36:49.860Z,47.90
2019-03-30T20:39:20.266Z,47.64
2019-03-30T20:41:51.159Z,47.76
2019-03-30T20:44:21.920Z,48.07
2019-03-30T20:46:52.398Z,48.34
2019-03-30T20:49:22.900Z,48.76
2019-03-30T20:51:53.567Z,48.95
2019-03-30T20:54:24.050Z,49.85
2019-03-30T20:56:54.464Z,51.45
2019-03-30T20:59:39.095Z,51.38
2019-03-30T21:01:55.346Z,52.87
2019-03-30T21:04:25.744Z,53.72
2019-03-30T21:06:56.078Z,54.32
2019-03-30T21:09:26.511Z,54.37
2019-03-30T21:11:56.991Z,55.02
2019-03-30T21:14:27.302Z,55.64
2019-03-30T21:16:57.859Z,56.46
2019-03-30T21:19:28.195Z,56.61
2019-03-30T21:21:58.579Z,57.04
2019-03-30T21:24:29.037Z,57.53
2019-03-30T21:26:59.367Z,58.19
2019-03-30T21:29:29.678Z,58.28
2019-03-30T21:31:59.992Z,58.72
2019-03-30T21:34:30.325Z,59.40
2019-03-30T21:37:00.766Z,59.29
2019-03-30T21:39:31.035Z,59.26
2019-03-30T21:42:01.670Z,59.57
2019-03-30T21:44:32.298Z,59.74
2019-03-30T21:47:02.979Z,59.85
2019-03-30T21:49:33.307Z,60.27
2019-03-30T21:52:03.687Z,60.56
2019-03-30T21:54:33.993Z,60.70
2019-03-30T21:57:04.329Z,60.70
2019-03-30T21:59:34.695Z,61.14
2019-03-30T22:02:05.087Z,61.05
2019-03-30T22:04:35.475Z,61.49
2019-03-30T22:07:05.766Z,61.88
2019-03-30T22:09:36.150Z,62.09
2019-03-30T22:12:06.511Z,61.88
2019-03-30T22:14:36.843Z,62.47
2019-03-30T22:17:07.141Z,62.70
2019-03-30T22:19:37.518Z,62.33
2019-03-30T22:22:07.857Z,62.24
2019-03-30T22:24:38.298Z,62.01
2019-03-30T22:27:08.645Z,62.44
2019-03-30T22:29:39.132Z,62.46
2019-03-30T22:32:09.407Z,62.45
2019-03-30T22:34:39.724Z,62.45
2019-03-30T22:37:10.042Z,62.51
2019-03-30T22:39:40.463Z,62.59
2019-03-30T22:42:10.803Z,62.56
2019-03-30T22:44:41.180Z,62.71
2019-03-30T22:47:11.558Z,62.80
2019-03-30T22:49:41.870Z,62.93
2019-03-30T22:52:12.223Z,63.11
2019-03-30T22:54:42.534Z,63.02
2019-03-30T22:57:12.898Z,63.37
2019-03-30T22:59:43.238Z,63.67
2019-03-30T23:02:13.594Z,63.76
2019-03-30T23:04:43.898Z,63.85
2019-03-30T23:07:14.332Z,63.92
2019-03-30T23:09:44.672Z,64.23
2019-03-30T23:12:14.973Z,64.52
2019-03-30T23:14:45.320Z,64.75
2019-03-30T23:17:15.625Z,65.07
2019-03-30T23:19:45.971Z,65.18
2019-03-30T23:22:16.300Z,65.46
2019-03-30T23:24:46.642Z,65.71
2019-03-30T23:27:16.999Z,65.87
2019-03-30T23:29:47.365Z,66.00
2019-03-30T23:32:17.719Z,66.06
2019-03-30T23:34:48.044Z,66.32
2019-03-30T23:37:18.344Z,66.18
2019-03-30T23:39:48.692Z,66.32
2019-03-30T23:42:19.053Z,66.63
2019-03-30T23:44:49.420Z,66.59
2019-03-30T23:47:19.877Z,66.67
2019-03-30T23:49:50.195Z,66.98
2019-03-30T23:52:20.511Z,66.95
2019-03-30T23:54:50.900Z,67.15
2019-03-30T23:57:21.251Z,67.31
2019-03-30T23:59:51.575Z,67.39
